Etusivu
METAR-TAF:

METAR-TAF

Lentoasemat :

Poitiers, Ranska

Leveyspiiri: 46-35N, Pituuspiiri: 000-19E, korkeus merenpinnasta: 129 m

Tämänhetkinen sää

Tämä raportti tehtiin 33 minuuttia sitten, kello 05.30 UTC
Tuuli 7 kn pohjoisesta/koillisesta
Lämpötila 2°C
Kosteus 93%
Ilmanpaine 1030 hPa
Näkyvyys: 9000 m

METAR: LFBI 240530Z AUTO 02007KT 9000 NSC 02/01 Q1030 NOSIG

Aika: 07:03 (06:03 UTC)

Sääennuste

Tämä raportti tehtiin 1 tunti ja 3 minuuttia sitten, kello 05.00 UTC
Ennuste voimassa 24. päivästä klo 06 UTC - 25. päivään klo 06 UTC
Tuuli 6 kn koillisesta
Näkyvyys 10 km tai enemmän
ei pilviä alle 1500 m:ssä eikä cumulonimbus-pilviä
Todennäköisyys 30%
25. päivästä klo 02 UTC - 25. päivään klo 06 UTC
Näkyvyys: 2000 m
utua

TAF: LFBI 240500Z 2406/2506 04006KT CAVOK PROB30 2502/2506 2000 BR

Säähavainnot ja -ennusteet yli 4000 lentoasemalta (METAR- ja TAF-raportit).

Käytössä olevat sääasemat on merkitty karttaan keltaisilla ja punaisilla pisteillä.

Aseta hiiri pisteen päälle nähdäksesi sääaseman nimen.

Klikkaa sitten nähdäksesi säähavainnot ja -ennusteet.

Kartan vaihtaminen: klikkaa mustalla rastilla varustettuja vihreitä pisteitä, niin voit zoomata sisään; viivalla varustettua vihreää pistettä, niin voit zoomata ulos tai vihreitä nuolia, niin pääset viereisille kartoille.


METAR-TAF: